Time;durP1;ratioP1;P1;durP2;ratioP2;P2;SDS_P1;SDS_P2;PMS_P1;PMS_P2;Temp;Humidity;BMP_temperature;BMP_pressure;BME280_temperature;BME280_humidity;BME280_pressure;Samples;Min_cycle;Max_cycle;Signal;HPM_P1;HPM_P2
2022/06/19 00:00:39;;;;;;;6.57;4.17;;;22.80;99.90;;;;;;7367735;19;21159;-77
2022/06/19 00:03:13;;;;;;;5.27;4.20;;;22.80;99.90;;;;;;7370098;19;20341;-77
2022/06/19 00:05:39;;;;;;;4.30;3.90;;;22.80;99.90;;;;;;7369042;19;20317;-77
2022/06/19 00:08:04;;;;;;;5.50;4.13;;;22.80;99.90;;;;;;7372156;19;20347;-76
2022/06/19 00:10:30;;;;;;;5.03;3.33;;;22.70;99.90;;;;;;7372721;19;20312;-75
2022/06/19 00:12:55;;;;;;;3.88;3.50;;;22.70;99.90;;;;;;7370084;19;20429;-77
2022/06/19 00:15:21;;;;;;;4.53;4.03;;;22.80;99.90;;;;;;7368852;19;20895;-76
2022/06/19 00:17:47;;;;;;;8.40;4.23;;;22.80;99.90;;;;;;7368702;19;20317;-75
2022/06/19 00:20:12;;;;;;;4.13;3.72;;;22.60;99.90;;;;;;7363950;19;20376;-78
2022/06/19 00:22:38;;;;;;;5.38;4.30;;;22.60;99.90;;;;;;7369065;19;20362;-74
2022/06/19 00:25:05;;;;;;;4.83;4.30;;;22.50;99.90;;;;;;7369613;19;20344;-75
2022/06/19 00:27:35;;;;;;;8.60;4.33;;;22.50;99.90;;;;;;7370646;19;20719;-74
2022/06/19 00:30:00;;;;;;;9.30;4.47;;;22.40;99.90;;;;;;7368238;19;20347;-74
2022/06/19 00:32:27;;;;;;;5.80;4.90;;;22.30;99.90;;;;;;7367636;19;20332;-76
2022/06/19 00:34:52;;;;;;;5.85;4.47;;;22.20;99.90;;;;;;7371023;19;20309;-79
2022/06/19 00:37:18;;;;;;;8.83;4.20;;;22.20;99.90;;;;;;7371354;19;20316;-78
2022/06/19 00:39:44;;;;;;;4.63;4.17;;;22.10;99.90;;;;;;7372817;19;20424;-79
2022/06/19 00:42:11;;;;;;;6.47;5.10;;;22.10;99.90;;;;;;7371628;19;20328;-74
2022/06/19 00:44:36;;;;;;;5.73;4.43;;;22.00;99.90;;;;;;7374134;19;20345;-77
2022/06/19 00:47:13;;;;;;;4.40;4.00;;;21.90;99.90;;;;;;7371234;19;20348;-76
2022/06/19 00:49:47;;;;;;;5.65;4.43;;;21.80;99.90;;;;;;7372260;19;20352;-77
2022/06/19 00:52:21;;;;;;;6.10;4.20;;;21.80;99.90;;;;;;7373362;19;20332;-77
2022/06/19 00:54:55;;;;;;;4.70;4.20;;;21.80;99.90;;;;;;7374899;19;20333;-77
2022/06/19 00:57:22;;;;;;;5.90;4.47;;;21.80;99.90;;;;;;7371713;19;20328;-77
2022/06/19 00:59:53;;;;;;;4.97;4.03;;;21.70;99.90;;;;;;7372051;19;21126;-76
2022/06/19 01:02:19;;;;;;;5.13;4.15;;;21.70;99.90;;;;;;7370513;19;20320;-77
2022/06/19 01:04:48;;;;;;;5.18;4.50;;;21.70;99.90;;;;;;7372541;19;20388;-79
2022/06/19 01:07:15;;;;;;;5.63;4.20;;;21.70;99.90;;;;;;7372365;19;20432;-78
2022/06/19 01:09:40;;;;;;;5.00;4.15;;;21.70;99.90;;;;;;7371737;19;20361;-76
2022/06/19 01:12:08;;;;;;;4.50;4.10;;;21.70;99.90;;;;;;7369173;19;20392;-81
2022/06/19 01:14:34;;;;;;;4.40;4.00;;;21.70;99.90;;;;;;7375396;19;20344;-77
2022/06/19 01:17:01;;;;;;;8.15;4.38;;;21.70;99.90;;;;;;7370740;19;20308;-76
2022/06/19 01:19:29;;;;;;;4.95;4.35;;;21.60;99.90;;;;;;7373039;19;20309;-77
2022/06/19 01:22:02;;;;;;;5.07;4.57;;;21.70;99.90;;;;;;7370541;19;20368;-77
2022/06/19 01:24:58;;;;;;;5.50;4.93;;;21.60;99.90;;;;;;7372163;19;20765;-74
2022/06/19 01:30:08;;;;;;;7.50;4.88;;;21.50;99.90;;;;;;7272212;19;2004512;-76
2022/06/19 01:32:35;;;;;;;5.00;4.50;;;21.40;99.90;;;;;;7372141;19;20344;-75
2022/06/19 01:35:00;;;;;;;5.15;4.60;;;21.30;99.90;;;;;;7371186;19;20337;-75
2022/06/19 01:37:26;;;;;;;7.13;4.95;;;21.30;99.90;;;;;;7372538;19;20336;-77
2022/06/19 01:40:06;;;;;;;6.50;4.77;;;21.20;99.90;;;;;;7370007;19;20724;-77
2022/06/19 01:42:32;;;;;;;4.95;4.10;;;21.20;99.90;;;;;;7266671;19;2020014;-74
2022/06/19 01:44:58;;;;;;;4.97;4.47;;;21.20;99.90;;;;;;7369226;19;20311;-75
2022/06/19 01:47:23;;;;;;;6.00;4.80;;;21.20;99.90;;;;;;7373831;19;20812;-78
2022/06/19 01:49:50;;;;;;;5.70;4.77;;;21.10;99.90;;;;;;7371489;19;20324;-75
2022/06/19 01:52:15;;;;;;;4.53;4.07;;;21.10;99.90;;;;;;7370360;19;20336;-75
2022/06/19 01:55:07;;;;;;;5.28;4.78;;;21.10;99.90;;;;;;7374792;19;20320;-76
2022/06/19 01:57:32;;;;;;;4.95;4.55;;;21.10;99.90;;;;;;7270171;19;2004779;-75
2022/06/19 01:59:58;;;;;;;5.72;4.70;;;21.10;99.90;;;;;;7371674;19;20332;-75
2022/06/19 02:02:23;;;;;;;5.40;4.87;;;21.10;99.90;;;;;;7369020;19;20717;-80
2022/06/19 02:04:49;;;;;;;4.73;4.27;;;21.00;99.90;;;;;;7369984;19;20364;-75
2022/06/19 02:07:19;;;;;;;4.43;4.03;;;21.00;99.90;;;;;;7369858;19;21197;-76
2022/06/19 02:09:45;;;;;;;5.25;4.40;;;21.00;99.90;;;;;;7370193;19;20962;-76
2022/06/19 02:12:10;;;;;;;5.43;4.80;;;21.00;99.90;;;;;;7370249;19;20333;-78
2022/06/19 02:14:36;;;;;;;5.40;4.50;;;21.00;99.90;;;;;;7371564;19;20324;-78
2022/06/19 02:17:06;;;;;;;8.10;5.20;;;21.00;99.90;;;;;;7369325;19;20411;-76
2022/06/19 02:19:32;;;;;;;6.10;4.68;;;21.00;99.90;;;;;;7372190;19;20320;-76
2022/06/19 02:21:57;;;;;;;9.20;5.35;;;21.00;99.90;;;;;;7369635;19;20757;-78
2022/06/19 02:24:24;;;;;;;7.57;4.97;;;21.00;99.90;;;;;;7373099;19;20312;-75
2022/06/19 02:26:50;;;;;;;8.27;5.45;;;20.90;99.90;;;;;;7371029;19;21296;-76
2022/06/19 02:29:17;;;;;;;5.93;5.00;;;20.90;99.90;;;;;;7372686;19;20317;-74
2022/06/19 02:31:44;;;;;;;5.88;4.80;;;20.90;99.90;;;;;;7368924;19;20588;-79
2022/06/19 02:34:15;;;;;;;5.55;4.85;;;20.90;99.90;;;;;;7371970;19;20349;-75
2022/06/19 02:37:00;;;;;;;4.88;4.38;;;20.90;99.90;;;;;;7370795;19;20333;-79
2022/06/19 02:39:55;;;;;;;6.32;5.25;;;20.90;99.90;;;;;;7371522;19;20347;-81
2022/06/19 02:42:20;;;;;;;6.80;5.22;;;20.90;99.90;;;;;;7267079;19;2004354;-78
2022/06/19 02:44:54;;;;;;;4.80;4.25;;;20.80;99.90;;;;;;7374357;19;20333;-74
2022/06/19 02:47:24;;;;;;;5.88;4.82;;;20.80;99.90;;;;;;7369347;19;20850;-74
2022/06/19 02:49:50;;;;;;;6.97;4.78;;;20.70;99.90;;;;;;7369623;19;21268;-75
2022/06/19 02:52:15;;;;;;;5.72;4.70;;;20.70;99.90;;;;;;7368293;19;20356;-79
2022/06/19 02:54:41;;;;;;;6.75;5.32;;;20.70;99.90;;;;;;7370318;19;20838;-74
2022/06/19 02:57:07;;;;;;;5.47;4.97;;;20.60;99.90;;;;;;7369400;19;20838;-75
2022/06/19 02:59:32;;;;;;;5.60;5.10;;;20.70;99.90;;;;;;7369729;19;20329;-77
2022/06/19 03:01:58;;;;;;;6.63;4.80;;;20.60;99.90;;;;;;7364992;19;20329;-78
2022/06/19 03:04:25;;;;;;;6.43;4.57;;;20.60;99.90;;;;;;7372046;19;20949;-79
2022/06/19 03:06:51;;;;;;;7.90;4.88;;;20.60;99.90;;;;;;7368525;19;20942;-75
2022/06/19 03:09:17;;;;;;;6.20;4.90;;;20.60;99.90;;;;;;7353256;19;20727;-74
2022/06/19 03:11:42;;;;;;;10.57;5.10;;;20.70;99.90;;;;;;7371249;19;20362;-77
2022/06/19 03:14:08;;;;;;;5.15;4.65;;;20.60;99.90;;;;;;7370783;19;20332;-76
2022/06/19 03:16:34;;;;;;;4.70;4.25;;;20.70;99.90;;;;;;7368024;19;20374;-77
2022/06/19 03:18:59;;;;;;;5.57;4.60;;;20.70;99.90;;;;;;7371929;19;21068;-79
2022/06/19 03:21:25;;;;;;;5.07;4.53;;;20.70;99.90;;;;;;7368406;19;20320;-76
2022/06/19 03:23:51;;;;;;;6.20;5.10;;;20.70;99.90;;;;;;7373706;19;20321;-73
2022/06/19 03:26:16;;;;;;;6.17;5.13;;;20.70;99.90;;;;;;7370013;19;20333;-77
2022/06/19 03:28:42;;;;;;;7.55;4.88;;;20.70;99.90;;;;;;7371172;19;20363;-76
2022/06/19 03:31:14;;;;;;;5.93;5.00;;;20.70;99.90;;;;;;7350629;19;20998;-79
2022/06/19 03:33:40;;;;;;;5.82;5.20;;;20.70;99.90;;;;;;7364743;19;20344;-78
2022/06/19 03:36:05;;;;;;;8.77;5.13;;;20.60;99.90;;;;;;7367094;19;20469;-76
2022/06/19 03:38:31;;;;;;;6.27;5.23;;;20.80;99.90;;;;;;7370229;19;20321;-77
2022/06/19 03:40:57;;;;;;;6.60;5.90;;;20.70;99.90;;;;;;7366108;19;20398;-75
2022/06/19 03:43:22;;;;;;;6.13;4.97;;;20.70;99.90;;;;;;7371500;19;21222;-76
2022/06/19 03:45:48;;;;;;;7.20;5.33;;;20.70;99.90;;;;;;7366758;19;20352;-78
2022/06/19 03:48:13;;;;;;;7.47;5.57;;;20.70;99.90;;;;;;7370296;19;21270;-75
2022/06/19 03:50:39;;;;;;;5.70;5.10;;;20.70;99.90;;;;;;7367393;19;20425;-75
2022/06/19 03:53:05;;;;;;;7.67;4.73;;;20.70;99.90;;;;;;7370582;19;21507;-77
2022/06/19 03:55:31;;;;;;;7.22;4.47;;;20.80;99.90;;;;;;7367034;19;20316;-74
2022/06/19 03:57:58;;;;;;;5.37;4.87;;;20.80;99.90;;;;;;7369651;19;20319;-77
2022/06/19 04:00:24;;;;;;;5.78;5.18;;;20.90;99.90;;;;;;7368989;19;21202;-74
2022/06/19 04:02:50;;;;;;;6.63;5.20;;;20.90;99.90;;;;;;7367096;19;20325;-74
2022/06/19 04:05:17;;;;;;;6.43;5.30;;;20.90;99.90;;;;;;7366839;19;20364;-75
2022/06/19 04:07:46;;;;;;;6.80;4.68;;;20.90;99.90;;;;;;7369656;19;20337;-78
2022/06/19 04:10:12;;;;;;;6.00;4.63;;;21.00;99.90;;;;;;7365217;19;20352;-78
2022/06/19 04:12:38;;;;;;;8.00;4.85;;;21.00;99.90;;;;;;7369346;19;20424;-76
2022/06/19 04:15:04;;;;;;;5.50;4.60;;;21.10;99.90;;;;;;7367849;19;20329;-74
2022/06/19 04:17:30;;;;;;;5.13;4.63;;;21.10;99.90;;;;;;7368922;19;20352;-78
2022/06/19 04:19:56;;;;;;;9.18;5.25;;;21.20;99.90;;;;;;7366840;19;20400;-78
2022/06/19 04:22:21;;;;;;;6.57;4.90;;;21.20;99.90;;;;;;7367891;19;20887;-78
2022/06/19 04:24:47;;;;;;;7.03;4.87;;;21.30;99.90;;;;;;7369629;19;20328;-75
2022/06/19 04:27:12;;;;;;;5.93;5.13;;;21.30;99.90;;;;;;7367696;19;20369;-81
2022/06/19 04:29:38;;;;;;;6.13;5.22;;;21.40;99.90;;;;;;7370237;19;20355;-80
2022/06/19 04:32:04;;;;;;;6.63;5.33;;;21.50;99.90;;;;;;7366464;19;20348;-79
2022/06/19 04:34:29;;;;;;;5.57;4.47;;;21.50;99.90;;;;;;7369715;19;20332;-75
2022/06/19 04:36:55;;;;;;;6.00;4.40;;;21.60;99.90;;;;;;7366259;19;20336;-75
2022/06/19 04:39:21;;;;;;;5.83;4.60;;;21.70;99.90;;;;;;7367888;19;20367;-77
2022/06/19 04:41:46;;;;;;;5.63;4.40;;;21.80;99.90;;;;;;7366032;19;20385;-80
2022/06/19 04:44:13;;;;;;;7.82;4.57;;;21.90;99.90;;;;;;7370204;19;20351;-75
2022/06/19 04:46:39;;;;;;;8.05;5.55;;;22.00;99.90;;;;;;7368924;19;20414;-76
2022/06/19 04:49:05;;;;;;;4.97;4.27;;;22.10;99.90;;;;;;7372931;19;20464;-80
2022/06/19 04:51:33;;;;;;;5.60;4.20;;;22.10;99.90;;;;;;7367172;19;20322;-76
2022/06/19 04:53:59;;;;;;;4.80;4.30;;;22.30;99.90;;;;;;7368738;19;20313;-77
2022/06/19 04:56:24;;;;;;;6.47;4.40;;;22.30;99.90;;;;;;7367994;19;20951;-76
2022/06/19 04:58:50;;;;;;;6.83;3.97;;;22.40;99.90;;;;;;7369354;19;20297;-75
2022/06/19 05:01:26;;;;;;;5.65;4.30;;;22.60;99.90;;;;;;7363309;19;20345;-76
2022/06/19 05:03:52;;;;;;;5.38;4.13;;;22.70;99.90;;;;;;7372173;19;20321;-82
2022/06/19 05:06:18;;;;;;;4.57;4.18;;;22.80;99.90;;;;;;7369732;19;20339;-76
2022/06/19 05:08:44;;;;;;;5.55;4.07;;;22.90;99.90;;;;;;7372451;19;20320;-75
2022/06/19 05:11:10;;;;;;;5.95;4.22;;;23.00;99.90;;;;;;7366811;19;20392;-75
2022/06/19 05:13:35;;;;;;;4.68;3.72;;;23.10;99.90;;;;;;7367844;19;20316;-76
2022/06/19 05:16:09;;;;;;;5.80;4.13;;;23.20;99.90;;;;;;7367117;19;20312;-76
2022/06/19 05:18:35;;;;;;;4.95;3.53;;;23.30;99.90;;;;;;7371569;19;20304;-77
2022/06/19 05:21:01;;;;;;;4.93;3.93;;;23.40;99.90;;;;;;7368500;19;20316;-75
2022/06/19 05:23:28;;;;;;;5.95;4.10;;;23.50;99.90;;;;;;7373600;19;20323;-76
2022/06/19 05:25:59;;;;;;;4.65;3.70;;;23.60;99.90;;;;;;7372831;19;20305;-76
2022/06/19 05:28:25;;;;;;;5.10;4.00;;;23.70;99.90;;;;;;7372469;19;20332;-75
2022/06/19 05:30:50;;;;;;;7.38;4.20;;;23.70;99.90;;;;;;7368069;19;20698;-80
2022/06/19 05:33:16;;;;;;;4.53;3.80;;;23.80;99.90;;;;;;7369222;19;21345;-77
2022/06/19 05:35:41;;;;;;;5.40;3.90;;;23.90;99.90;;;;;;7369529;19;20352;-76
2022/06/19 05:38:11;;;;;;;5.10;3.78;;;24.00;99.90;;;;;;7371208;19;20348;-75
2022/06/19 05:40:37;;;;;;;5.93;4.20;;;24.10;99.90;;;;;;7368327;19;20321;-79
2022/06/19 05:43:03;;;;;;;4.07;3.43;;;24.10;99.90;;;;;;7369625;19;20324;-75
2022/06/19 05:45:28;;;;;;;7.50;3.72;;;24.20;99.90;;;;;;7370413;19;20340;-80
2022/06/19 05:47:54;;;;;;;10.50;4.30;;;24.30;99.90;;;;;;7370575;19;20335;-75
2022/06/19 05:50:19;;;;;;;5.07;3.53;;;24.40;99.90;;;;;;7367226;19;20316;-76
2022/06/19 05:52:45;;;;;;;5.23;3.60;;;24.60;99.90;;;;;;7371866;19;20696;-77
2022/06/19 05:55:12;;;;;;;3.45;3.15;;;24.70;99.90;;;;;;7369574;19;20340;-77
2022/06/19 05:57:38;;;;;;;4.55;3.30;;;25.00;99.90;;;;;;7373177;19;20328;-79
2022/06/19 06:00:04;;;;;;;5.33;3.67;;;25.10;99.90;;;;;;7366774;19;20403;-79
2022/06/19 06:02:37;;;;;;;4.30;3.47;;;25.20;99.90;;;;;;7370344;19;20328;-76
2022/06/19 06:05:03;;;;;;;6.40;3.40;;;25.30;99.90;;;;;;7369104;19;20312;-76
2022/06/19 06:07:29;;;;;;;8.60;3.30;;;25.50;99.90;;;;;;7368472;19;20328;-80
2022/06/19 06:09:55;;;;;;;4.90;3.10;;;25.60;99.90;;;;;;7368360;19;20318;-79
2022/06/19 06:12:20;;;;;;;3.73;3.00;;;25.80;99.90;;;;;;7370219;19;20309;-79
2022/06/19 06:14:46;;;;;;;8.30;3.20;;;25.90;99.90;;;;;;7373058;19;20333;-78
2022/06/19 06:17:12;;;;;;;5.13;2.80;;;26.10;99.90;;;;;;7366172;19;20329;-77
2022/06/19 06:19:37;;;;;;;5.70;3.10;;;26.20;99.90;;;;;;7368733;19;20355;-80
2022/06/19 06:22:03;;;;;;;4.28;2.88;;;26.40;99.90;;;;;;7368029;19;20406;-77
2022/06/19 06:24:29;;;;;;;6.25;3.20;;;26.50;99.90;;;;;;7372391;19;20336;-79
2022/06/19 06:26:55;;;;;;;6.88;3.40;;;26.60;99.90;;;;;;7371565;19;20990;-75
2022/06/19 06:29:21;;;;;;;3.80;3.20;;;26.80;99.90;;;;;;7378248;19;20328;-75
2022/06/19 06:31:46;;;;;;;5.90;3.10;;;26.90;99.90;;;;;;7374359;19;20884;-75
2022/06/19 06:34:12;;;;;;;6.43;2.92;;;27.00;99.90;;;;;;7375934;19;20732;-75
2022/06/19 06:36:38;;;;;;;4.73;3.17;;;27.00;99.90;;;;;;7374553;19;20983;-76
2022/06/19 06:39:03;;;;;;;3.80;2.83;;;27.20;99.90;;;;;;7374126;19;20372;-74
2022/06/19 06:41:29;;;;;;;4.85;2.90;;;27.30;99.90;;;;;;7369895;19;20863;-74
2022/06/19 06:43:55;;;;;;;9.63;3.05;;;27.50;99.90;;;;;;7375143;19;20774;-75
2022/06/19 06:46:25;;;;;;;6.27;2.80;;;27.60;99.90;;;;;;7370418;19;20323;-75
2022/06/19 06:48:51;;;;;;;3.27;2.97;;;27.70;99.90;;;;;;7349886;19;20324;-75
2022/06/19 06:51:19;;;;;;;7.32;3.13;;;27.90;99.90;;;;;;7372584;19;20335;-74
2022/06/19 06:53:45;;;;;;;6.07;2.85;;;28.00;99.90;;;;;;7374111;19;20333;-74
2022/06/19 06:56:11;;;;;;;3.72;2.88;;;28.20;99.90;;;;;;7371078;19;20341;-74
2022/06/19 06:58:37;;;;;;;5.55;2.92;;;28.40;99.90;;;;;;7377099;19;20404;-74
2022/06/19 07:01:07;;;;;;;3.03;2.70;;;28.40;99.90;;;;;;7370804;19;20414;-74
2022/06/19 07:03:33;;;;;;;3.95;2.67;;;28.60;99.90;;;;;;7376772;19;20323;-74
2022/06/19 07:05:59;;;;;;;6.17;2.97;;;28.70;99.90;;;;;;7378578;19;21300;-75
2022/06/19 07:08:24;;;;;;;3.20;2.53;;;28.80;99.90;;;;;;7382685;19;20316;-76
2022/06/19 07:10:50;;;;;;;4.40;2.50;;;28.90;99.90;;;;;;7380929;19;21294;-75
2022/06/19 07:13:15;;;;;;;3.90;2.37;;;29.00;99.90;;;;;;7377313;19;20372;-75
2022/06/19 07:15:41;;;;;;;5.60;2.87;;;29.20;99.90;;;;;;7376693;19;20341;-75
2022/06/19 07:18:06;;;;;;;2.72;2.50;;;29.30;99.90;;;;;;7380988;19;20340;-75
2022/06/19 07:20:32;;;;;;;2.67;2.42;;;29.50;99.90;;;;;;7376576;19;20352;-75
2022/06/19 07:22:58;;;;;;;5.05;2.70;;;29.60;99.90;;;;;;7380129;19;20301;-75
2022/06/19 07:25:23;;;;;;;5.30;2.92;;;29.70;99.90;;;;;;7379690;19;20904;-76
2022/06/19 07:27:49;;;;;;;2.47;2.27;;;29.90;98.30;;;;;;7381184;19;20344;-75
2022/06/19 07:30:16;;;;;;;3.00;2.50;;;30.10;99.60;;;;;;7379047;19;21305;-75
2022/06/19 07:32:42;;;;;;;4.38;2.20;;;30.30;98.30;;;;;;7380115;19;20336;-76
2022/06/19 07:35:08;;;;;;;4.27;2.40;;;30.60;97.70;;;;;;7379232;19;20336;-77
2022/06/19 07:37:33;;;;;;;2.65;2.45;;;30.70;97.70;;;;;;7381454;19;21065;-75
2022/06/19 07:39:59;;;;;;;4.68;2.42;;;30.90;97.20;;;;;;7377502;19;20359;-76
2022/06/19 07:42:25;;;;;;;4.57;2.60;;;31.00;95.90;;;;;;7381881;19;20339;-76
2022/06/19 07:44:50;;;;;;;5.80;2.30;;;31.10;93.50;;;;;;7378938;19;20370;-76
2022/06/19 07:50:09;;;;;;;5.50;2.60;;;31.20;93.30;;;;;;7375006;19;21065;-75
2022/06/19 07:52:35;;;;;;;5.30;2.45;;;31.40;94.70;;;;;;7264324;19;2004502;-76
2022/06/19 07:55:01;;;;;;;4.85;2.10;;;31.40;94.30;;;;;;7375919;19;20339;-76
2022/06/19 07:57:27;;;;;;;3.05;2.20;;;31.60;92.20;;;;;;7336240;19;20356;-77
2022/06/19 07:59:53;;;;;;;5.30;2.73;;;31.70;91.30;;;;;;7373116;19;20309;-76
2022/06/19 08:02:18;;;;;;;4.07;2.53;;;31.80;90.30;;;;;;7372760;19;20340;-75
2022/06/19 08:04:44;;;;;;;5.78;2.30;;;31.60;87.20;;;;;;7356917;19;20340;-75
2022/06/19 08:07:13;;;;;;;3.15;2.42;;;31.80;88.00;;;;;;7376821;19;20344;-75
2022/06/19 08:09:39;;;;;;;7.60;2.25;;;31.90;87.90;;;;;;7372593;19;20349;-75
2022/06/19 08:12:04;;;;;;;7.30;2.73;;;32.10;89.60;;;;;;7372082;19;20323;-75
2022/06/19 08:14:30;;;;;;;3.08;2.20;;;32.40;86.40;;;;;;7377979;19;20332;-75
2022/06/19 08:16:56;;;;;;;4.35;2.22;;;32.40;86.90;;;;;;7372090;19;20296;-75
2022/06/19 08:19:21;;;;;;;4.87;2.20;;;32.50;84.30;;;;;;7372014;19;20329;-75
2022/06/19 08:21:47;;;;;;;5.40;2.27;;;32.70;81.10;;;;;;7370878;19;20316;-76
2022/06/19 08:24:13;;;;;;;4.13;2.10;;;32.80;79.90;;;;;;7373702;19;20876;-75
2022/06/19 08:26:38;;;;;;;5.57;2.33;;;32.80;78.30;;;;;;7371178;19;20352;-76
2022/06/19 08:29:04;;;;;;;6.97;2.65;;;33.00;79.50;;;;;;7373676;19;20319;-76
2022/06/19 08:31:31;;;;;;;8.38;2.80;;;32.90;75.30;;;;;;7371185;19;20375;-76
2022/06/19 08:33:56;;;;;;;3.78;2.53;;;33.20;78.00;;;;;;7374578;19;20297;-75
2022/06/19 08:36:22;;;;;;;9.68;2.50;;;33.20;73.80;;;;;;7373093;19;20324;-76
2022/06/19 08:38:49;;;;;;;11.63;2.38;;;33.00;72.40;;;;;;7374297;19;20408;-75
2022/06/19 08:41:35;;;;;;;5.65;2.40;;;33.10;74.70;;;;;;7372559;19;21123;-75
2022/06/19 08:44:35;;;;;;;6.60;2.27;;;33.20;71.50;;;;;;7377137;19;20336;-75
2022/06/19 08:47:12;;;;;;;4.65;2.35;;;33.50;73.10;;;;;;7271878;19;2004301;-75
2022/06/19 08:50:03;;;;;;;4.03;2.20;;;33.80;71.60;;;;;;7274557;19;2004734;-75
2022/06/19 08:52:48;;;;;;;9.90;2.57;;;33.90;70.20;;;;;;7371126;19;20320;-75
2022/06/19 08:55:26;;;;;;;6.78;2.20;;;34.00;72.70;;;;;;7267563;19;2019729;-75
2022/06/19 08:57:57;;;;;;;4.03;2.10;;;34.20;68.80;;;;;;7374437;19;20348;-75
2022/06/19 09:00:59;;;;;;;4.80;2.35;;;33.90;69.80;;;;;;7371793;19;20312;-76
2022/06/19 09:06:38;;;;;;;8.48;2.58;;;34.10;68.00;;;;;;7270796;19;2004347;-75
2022/06/19 09:09:13;;;;;;;4.03;2.30;;;34.20;67.30;;;;;;7271847;19;2020098;-76
2022/06/19 09:12:03;;;;;;;4.20;2.20;;;34.10;65.10;;;;;;7375278;19;20308;-76
2022/06/19 09:14:33;;;;;;;2.40;1.90;;;34.00;63.50;;;;;;7375522;19;21321;-75
2022/06/19 09:17:10;;;;;;;4.10;2.60;;;34.30;64.90;;;;;;7372548;19;20880;-75
2022/06/19 09:19:50;;;;;;;4.67;2.13;;;34.70;65.10;;;;;;7267638;19;2004353;-75
2022/06/19 09:22:21;;;;;;;6.70;2.67;;;34.80;67.10;;;;;;7370365;19;20340;-75
2022/06/19 09:24:53;;;;;;;5.30;2.35;;;34.90;65.30;;;;;;7372190;19;20344;-74
2022/06/19 09:27:20;;;;;;;3.67;2.15;;;35.00;66.00;;;;;;7369335;19;20348;-76
2022/06/19 09:29:48;;;;;;;5.65;2.45;;;35.30;68.20;;;;;;7367549;19;21142;-75
2022/06/19 09:32:32;;;;;;;4.15;2.08;;;35.40;65.00;;;;;;7362287;19;20332;-75
2022/06/19 09:34:59;;;;;;;2.58;2.30;;;35.60;63.20;;;;;;7364025;19;20835;-75
2022/06/19 09:37:30;;;;;;;6.30;2.33;;;35.60;60.10;;;;;;7365289;19;21174;-75
2022/06/19 09:40:29;;;;;;;6.57;2.47;;;35.70;60.50;;;;;;7362306;19;20371;-76
2022/06/19 09:43:10;;;;;;;4.63;2.33;;;35.60;58.10;;;;;;7263266;19;2004256;-77
2022/06/19 09:45:57;;;;;;;4.78;2.33;;;35.60;58.10;;;;;;7264338;19;2004394;-79
2022/06/19 09:48:28;;;;;;;4.65;2.03;;;35.90;60.20;;;;;;7371553;19;20333;-76
2022/06/19 09:51:18;;;;;;;5.25;2.28;;;36.00;57.20;;;;;;7354751;19;20333;-75
2022/06/19 09:53:50;;;;;;;5.90;2.47;;;36.00;58.80;;;;;;7263013;19;2004364;-75
2022/06/19 09:56:31;;;;;;;5.25;2.13;;;36.20;57.50;;;;;;7360235;19;20337;-76
2022/06/19 09:58:57;;;;;;;4.78;2.50;;;36.40;57.40;;;;;;7366846;19;20321;-76
2022/06/19 10:01:23;;;;;;;5.38;2.60;;;36.20;56.40;;;;;;7365864;19;20340;-77
2022/06/19 10:04:01;;;;;;;4.10;2.40;;;36.10;54.80;;;;;;7370161;19;20420;-77
2022/06/19 10:06:36;;;;;;;6.95;3.13;;;36.30;55.50;;;;;;7342188;19;20305;-77
2022/06/19 10:09:19;;;;;;;12.77;3.08;;;36.20;56.70;;;;;;7380697;19;20321;-77
2022/06/19 10:11:45;;;;;;;10.25;2.92;;;36.60;57.10;;;;;;7270889;19;2004656;-77
2022/06/19 10:14:31;;;;;;;8.20;3.00;;;36.70;55.20;;;;;;7373727;19;20345;-76
2022/06/19 10:17:18;;;;;;;4.28;2.75;;;36.70;53.60;;;;;;7370158;19;20443;-77
2022/06/19 10:19:51;;;;;;;11.55;3.35;;;37.10;55.30;;;;;;7370253;19;20576;-76
2022/06/19 10:22:48;;;;;;;8.60;2.95;;;37.10;55.10;;;;;;7338027;19;20344;-77
2022/06/19 10:25:13;;;;;;;4.95;2.60;;;37.10;53.40;;;;;;7222603;19;2004631;-76
2022/06/19 10:27:58;;;;;;;7.60;2.70;;;37.00;53.70;;;;;;7372987;19;20345;-77
2022/06/19 10:30:26;;;;;;;5.28;2.58;;;37.00;53.20;;;;;;7370899;19;21048;-76
2022/06/19 10:33:11;;;;;;;5.50;2.60;;;37.20;54.40;;;;;;7367184;19;20357;-75
2022/06/19 10:35:55;;;;;;;8.93;3.00;;;37.50;54.40;;;;;;7268640;19;2004354;-74
2022/06/19 10:38:54;;;;;;;6.43;2.60;;;37.50;53.00;;;;;;7374608;19;20406;-76
2022/06/19 10:44:52;;;;;;;6.53;2.55;;;37.20;53.20;;;;;;7274229;19;2004411;-75
2022/06/19 10:47:27;;;;;;;9.75;2.72;;;37.50;54.00;;;;;;7268237;19;2004429;-75
2022/06/19 10:50:04;;;;;;;5.03;2.70;;;37.70;53.60;;;;;;7374571;19;20352;-74
2022/06/19 10:52:34;;;;;;;9.10;2.85;;;37.80;52.00;;;;;;7372924;19;20851;-74
2022/06/19 10:55:23;;;;;;;6.35;2.70;;;38.00;51.60;;;;;;7373209;19;20962;-75
2022/06/19 10:58:01;;;;;;;5.63;2.55;;;37.90;50.60;;;;;;7273630;19;2004333;-74
2022/06/19 11:00:27;;;;;;;7.72;2.92;;;37.90;50.90;;;;;;7370630;19;21217;-74
2022/06/19 11:06:13;;;;;;;7.22;2.97;;;38.10;51.90;;;;;;7168271;19;2005469;-74
2022/06/19 11:08:42;;;;;;;8.95;3.05;;;38.00;50.50;;;;;;7374894;19;20422;-74
2022/06/19 11:11:07;;;;;;;12.43;2.88;;;38.30;51.30;;;;;;7366796;19;20339;-74
2022/06/19 11:13:55;;;;;;;8.37;2.63;;;38.70;50.00;;;;;;7372621;19;20328;-73
2022/06/19 11:16:21;;;;;;;6.33;2.83;;;39.10;51.60;;;;;;7270237;19;2020010;-74
2022/06/19 11:18:48;;;;;;;7.25;3.00;;;39.20;50.30;;;;;;7375420;19;20357;-74
2022/06/19 11:21:17;;;;;;;4.03;2.70;;;38.80;47.60;;;;;;7369780;19;20412;-74
2022/06/19 11:23:52;;;;;;;7.72;3.20;;;39.10;47.80;;;;;;7373854;19;20353;-74
2022/06/19 11:26:22;;;;;;;9.87;3.37;;;39.10;47.40;;;;;;7371282;19;20685;-74
2022/06/19 11:28:50;;;;;;;14.73;3.65;;;39.40;47.10;;;;;;7374271;19;20344;-74
2022/06/19 11:31:33;;;;;;;12.80;3.47;;;39.50;47.00;;;;;;7367883;19;20328;-74
2022/06/19 11:37:28;;;;;;;6.35;2.97;;;39.40;45.90;;;;;;7268071;19;2004362;-74
2022/06/19 11:39:59;;;;;;;9.10;3.50;;;39.00;45.60;;;;;;7267462;19;2004393;-74
2022/06/19 11:42:35;;;;;;;6.45;2.88;;;39.40;46.30;;;;;;7367925;19;20363;-75
2022/06/19 11:45:15;;;;;;;10.80;2.93;;;39.40;48.20;;;;;;7371054;19;20327;-74
2022/06/19 11:47:56;;;;;;;7.38;3.00;;;39.80;46.20;;;;;;7270020;19;2004427;-74
2022/06/19 11:50:22;;;;;;;4.73;2.77;;;39.80;44.70;;;;;;7372460;19;20333;-74
2022/06/19 11:52:54;;;;;;;7.97;2.83;;;39.40;43.70;;;;;;7374175;19;20332;-73
2022/06/19 11:55:27;;;;;;;8.40;2.95;;;39.90;44.50;;;;;;7372453;19;21034;-73
2022/06/19 11:57:54;;;;;;;8.05;2.70;;;40.20;45.20;;;;;;7370186;19;20351;-74
2022/06/19 12:00:43;;;;;;;5.50;2.70;;;40.10;45.20;;;;;;7368467;19;20345;-73
2022/06/19 12:03:50;;;;;;;8.97;3.07;;;39.90;45.50;;;;;;7270381;19;2004365;-74
2022/06/19 12:06:17;;;;;;;8.57;3.08;;;39.90;43.90;;;;;;7268039;19;2004246;-74
2022/06/19 12:09:02;;;;;;;8.48;3.05;;;39.80;44.90;;;;;;7373300;19;20333;-74
2022/06/19 12:11:41;;;;;;;8.02;2.90;;;39.90;44.90;;;;;;7365742;19;20686;-74
2022/06/19 12:14:10;;;;;;;5.63;2.55;;;40.30;45.80;;;;;;7372514;19;20340;-74
2022/06/19 12:16:36;;;;;;;11.23;3.15;;;40.70;45.60;;;;;;7376058;19;20456;-74
2022/06/19 12:19:28;;;;;;;7.60;3.07;;;40.60;44.30;;;;;;7372521;19;20301;-74
2022/06/19 12:22:02;;;;;;;9.23;3.40;;;40.70;44.10;;;;;;7266245;19;2025556;-74
2022/06/19 12:24:46;;;;;;;6.03;2.55;;;40.80;45.70;;;;;;7373324;19;20355;-74
2022/06/19 12:27:13;;;;;;;10.38;2.88;;;40.70;44.50;;;;;;7263520;19;2004504;-74
2022/06/19 12:29:46;;;;;;;5.10;2.60;;;40.40;44.80;;;;;;7370156;19;20329;-74
2022/06/19 12:32:24;;;;;;;8.60;3.13;;;41.10;45.20;;;;;;7351308;19;20336;-74
2022/06/19 12:34:50;;;;;;;7.72;2.67;;;41.10;44.90;;;;;;7372298;19;20371;-74
2022/06/19 12:37:19;;;;;;;8.73;2.63;;;41.30;44.00;;;;;;7361498;19;20864;-74
2022/06/19 12:39:45;;;;;;;5.78;2.55;;;41.30;44.10;;;;;;7344353;19;20356;-74
2022/06/19 12:42:46;;;;;;;6.28;3.00;;;41.50;44.50;;;;;;7356610;19;20341;-74
2022/06/19 12:45:24;;;;;;;5.82;2.35;;;41.50;44.50;;;;;;7261349;19;2005900;-75
2022/06/19 12:47:56;;;;;;;10.30;2.90;;;41.40;42.40;;;;;;7371201;19;20390;-73
2022/06/19 12:50:37;;;;;;;7.13;2.55;;;41.70;42.50;;;;;;7360444;19;20657;-73
2022/06/19 12:53:25;;;;;;;5.95;2.40;;;42.00;44.50;;;;;;7345325;19;20380;-73
2022/06/19 12:55:57;;;;;;;4.47;2.57;;;42.10;42.40;;;;;;7244719;19;2004931;-73
2022/06/19 12:59:00;;;;;;;5.35;2.85;;;42.60;43.30;;;;;;7363321;19;20390;-73
2022/06/19 13:01:54;;;;;;;6.13;2.97;;;41.90;40.80;;;;;;7241283;19;2004605;-73
2022/06/19 13:04:53;;;;;;;6.28;2.80;;;42.30;41.30;;;;;;7264679;19;2004599;-74
2022/06/19 13:07:21;;;;;;;6.72;3.17;;;42.20;43.30;;;;;;7266530;19;2004397;-72
2022/06/19 13:09:55;;;;;;;5.55;2.72;;;42.30;41.90;;;;;;7366762;19;20336;-72
2022/06/19 13:13:13;;;;;;;7.87;3.10;;;42.80;40.20;;;;;;7364343;19;20341;-72
2022/06/19 13:15:59;;;;;;;8.15;2.97;;;42.90;39.80;;;;;;7162509;19;2004265;-73
2022/06/19 13:18:52;;;;;;;10.77;2.75;;;42.80;39.70;;;;;;7370748;19;20337;-73